Time;durP1;ratioP1;P1;durP2;ratioP2;P2;SDS_P1;SDS_P2;PMS_P1;PMS_P2;Temp;Humidity;BMP_temperature;BMP_pressure;BME280_temperature;BME280_humidity;BME280_pressure;Samples;Min_cycle;Max_cycle;Signal;HPM_P1;HPM_P2
2023/01/12 00:01:48;;;;;;;7.53;4.85;;;;;;;;;;4955303;28;20039;-67
2023/01/12 00:04:16;;;;;;;9.82;5.82;;;;;;;;;;4954849;29;20063;-67
2023/01/12 00:06:43;;;;;;;9.55;5.53;;;;;;;;;;4956799;28;20094;-67
2023/01/12 00:09:11;;;;;;;8.73;5.60;;;;;;;;;;4955442;28;20421;-67
2023/01/12 00:11:39;;;;;;;10.40;5.78;;;;;;;;;;4955143;29;20126;-67
2023/01/12 00:14:08;;;;;;;10.07;5.53;;;;;;;;;;4955124;28;20126;-67
2023/01/12 00:16:38;;;;;;;7.97;5.50;;;;;;;;;;4955021;28;20035;-67
2023/01/12 00:19:08;;;;;;;8.85;4.95;;;;;;;;;;4955396;28;20446;-67
2023/01/12 00:21:42;;;;;;;9.05;4.82;;;;;;;;;;4955078;28;20082;-67
2023/01/12 00:24:09;;;;;;;10.75;5.07;;;;;;;;;;4953518;28;20047;-67
2023/01/12 00:26:37;;;;;;;9.30;5.30;;;;;;;;;;4954754;28;20591;-67
2023/01/12 00:29:04;;;;;;;9.55;5.40;;;;;;;;;;4985867;28;20121;-67
2023/01/12 00:31:31;;;;;;;11.55;5.70;;;;;;;;;;4953547;28;20043;-66
2023/01/12 00:33:59;;;;;;;11.90;5.88;;;;;;;;;;4954664;28;20506;-66
2023/01/12 00:36:27;;;;;;;10.40;5.80;;;;;;;;;;4954696;28;20410;-66
2023/01/12 00:38:54;;;;;;;7.70;5.43;;;;;;;;;;4954780;28;20043;-66
2023/01/12 00:46:54;;;;;;;10.32;5.78;;;;;;;;;;4954281;28;20051;-66
2023/01/12 00:49:21;;;;;;;11.93;5.65;;;;;;;;;;4954588;28;20640;-66
2023/01/12 00:51:48;;;;;;;9.38;5.82;;;;;;;;;;4954444;29;20054;-66
2023/01/12 00:54:16;;;;;;;10.82;5.57;;;;;;;;;;4954415;28;20079;-66
2023/01/12 00:56:43;;;;;;;10.88;5.10;;;;;;;;;;4954333;28;20039;-66
2023/01/12 00:59:11;;;;;;;9.93;5.60;;;;;;;;;;4954511;28;20563;-66
2023/01/12 01:01:38;;;;;;;7.10;4.65;;;;;;;;;;4954376;29;20466;-67
2023/01/12 01:04:05;;;;;;;9.43;5.15;;;;;;;;;;4954500;28;20051;-66
2023/01/12 01:06:33;;;;;;;11.60;5.50;;;;;;;;;;4954383;29;20036;-66
2023/01/12 01:09:00;;;;;;;11.05;5.30;;;;;;;;;;4954473;28;20077;-66
2023/01/12 01:11:28;;;;;;;9.55;5.22;;;;;;;;;;4955542;28;20043;-66
2023/01/12 01:13:55;;;;;;;10.50;5.45;;;;;;;;;;4958252;28;20074;-66
2023/01/12 01:16:22;;;;;;;8.80;4.72;;;;;;;;;;4958433;28;20074;-66
2023/01/12 01:18:50;;;;;;;11.40;5.60;;;;;;;;;;4958085;28;20043;-66
2023/01/12 01:21:17;;;;;;;10.25;5.82;;;;;;;;;;4958207;28;20460;-66
2023/01/12 01:23:45;;;;;;;10.93;5.63;;;;;;;;;;4958262;28;20035;-67
2023/01/12 01:26:14;;;;;;;11.05;6.35;;;;;;;;;;4958097;28;20134;-66
2023/01/12 01:28:42;;;;;;;8.65;5.18;;;;;;;;;;4957809;28;20043;-67
2023/01/12 01:31:12;;;;;;;9.77;5.63;;;;;;;;;;4958117;28;20744;-66
2023/01/12 01:33:39;;;;;;;8.82;5.00;;;;;;;;;;4958289;28;20051;-67
2023/01/12 01:36:08;;;;;;;12.40;5.60;;;;;;;;;;4958039;28;20494;-67
2023/01/12 01:38:36;;;;;;;9.48;5.43;;;;;;;;;;4957853;29;20038;-68
2023/01/12 01:41:04;;;;;;;12.45;5.75;;;;;;;;;;4958226;28;20078;-66
2023/01/12 01:43:51;;;;;;;10.82;5.63;;;;;;;;;;4957962;29;20054;-66
2023/01/12 01:46:24;;;;;;;9.77;5.13;;;;;;;;;;4957047;28;20055;-67
2023/01/12 01:48:53;;;;;;;10.95;5.32;;;;;;;;;;4957588;28;20494;-66
2023/01/12 01:51:21;;;;;;;9.02;5.57;;;;;;;;;;4957707;28;20494;-66
2023/01/12 01:53:48;;;;;;;10.43;4.90;;;;;;;;;;4957565;28;20453;-66
2023/01/12 01:56:19;;;;;;;10.57;5.45;;;;;;;;;;4957665;28;20094;-66
2023/01/12 01:58:52;;;;;;;9.63;5.15;;;;;;;;;;4957455;28;20497;-66
2023/01/12 02:01:19;;;;;;;9.38;5.15;;;;;;;;;;4957499;28;20047;-66
2023/01/12 02:03:47;;;;;;;11.95;5.75;;;;;;;;;;4957605;28;20491;-67
2023/01/12 02:06:15;;;;;;;12.15;6.63;;;;;;;;;;4957331;28;20102;-67
2023/01/12 02:08:42;;;;;;;13.23;6.10;;;;;;;;;;4957636;29;20098;-66
2023/01/12 02:16:57;;;;;;;12.90;6.18;;;;;;;;;;4955970;29;20047;-67
2023/01/12 02:19:33;;;;;;;13.63;7.30;;;;;;;;;;4957174;28;20102;-66
2023/01/12 02:22:03;;;;;;;15.98;6.90;;;;;;;;;;4956775;28;20508;-67
2023/01/12 02:24:37;;;;;;;13.77;7.18;;;;;;;;;;4956122;28;20047;-67
2023/01/12 02:27:07;;;;;;;14.27;7.43;;;;;;;;;;4956892;28;20490;-67
2023/01/12 02:29:38;;;;;;;14.75;7.22;;;;;;;;;;4956933;29;20043;-66
2023/01/12 02:32:08;;;;;;;12.32;6.90;;;;;;;;;;4955532;28;20459;-66
2023/01/12 02:34:57;;;;;;;15.55;7.57;;;;;;;;;;4955688;28;20058;-66
2023/01/12 02:37:31;;;;;;;14.68;7.07;;;;;;;;;;4956866;28;20079;-66
2023/01/12 02:40:07;;;;;;;13.00;6.90;;;;;;;;;;4956693;28;20046;-66
2023/01/12 02:42:40;;;;;;;14.70;7.28;;;;;;;;;;4956775;28;20048;-66
2023/01/12 02:45:19;;;;;;;14.77;6.72;;;;;;;;;;4956742;28;20113;-66
2023/01/12 02:47:56;;;;;;;16.15;7.57;;;;;;;;;;4956403;28;20051;-66
2023/01/12 02:50:30;;;;;;;14.73;7.30;;;;;;;;;;4956600;28;20047;-67
2023/01/12 02:53:02;;;;;;;15.83;8.00;;;;;;;;;;4955489;28;20086;-66
2023/01/12 02:55:30;;;;;;;15.45;7.95;;;;;;;;;;4956690;29;20453;-66
2023/01/12 02:57:58;;;;;;;17.10;7.78;;;;;;;;;;4956705;28;20135;-66
2023/01/12 03:00:26;;;;;;;14.18;7.93;;;;;;;;;;4956617;29;20098;-66
2023/01/12 03:02:53;;;;;;;18.33;8.80;;;;;;;;;;4956448;28;20489;-66
2023/01/12 03:05:25;;;;;;;13.73;7.93;;;;;;;;;;4956321;28;20482;-66
2023/01/12 03:07:55;;;;;;;16.70;8.13;;;;;;;;;;4956337;28;20043;-66
2023/01/12 03:10:28;;;;;;;13.38;7.85;;;;;;;;;;4956245;28;20564;-66
2023/01/12 03:12:58;;;;;;;14.48;8.52;;;;;;;;;;4956063;28;20106;-66
2023/01/12 03:15:27;;;;;;;17.88;9.52;;;;;;;;;;4956086;28;20043;-66
2023/01/12 03:17:59;;;;;;;18.13;8.88;;;;;;;;;;4956347;28;20051;-66
2023/01/12 03:20:30;;;;;;;15.43;7.95;;;;;;;;;;4956011;28;20501;-66
2023/01/12 03:23:01;;;;;;;14.73;7.40;;;;;;;;;;4955974;28;20069;-66
2023/01/12 03:25:31;;;;;;;15.70;8.57;;;;;;;;;;4956309;29;20455;-66
2023/01/12 03:27:59;;;;;;;15.85;7.95;;;;;;;;;;4955978;28;20098;-66
2023/01/12 03:30:30;;;;;;;15.35;7.97;;;;;;;;;;4956051;28;20055;-66
2023/01/12 03:32:57;;;;;;;15.63;7.68;;;;;;;;;;4955944;28;20094;-66
2023/01/12 03:35:26;;;;;;;14.02;7.28;;;;;;;;;;4955477;28;20135;-66
2023/01/12 03:37:54;;;;;;;14.68;7.80;;;;;;;;;;4955833;28;20055;-66
2023/01/12 03:40:23;;;;;;;13.38;7.63;;;;;;;;;;4956121;28;20082;-66
2023/01/12 03:42:56;;;;;;;13.30;7.85;;;;;;;;;;4955724;29;20066;-65
2023/01/12 03:45:27;;;;;;;12.07;7.00;;;;;;;;;;4955643;28;20404;-66
2023/01/12 03:47:56;;;;;;;13.00;7.28;;;;;;;;;;4955422;28;20057;-66
2023/01/12 03:50:26;;;;;;;12.32;6.55;;;;;;;;;;4954282;28;20051;-66
2023/01/12 03:52:54;;;;;;;14.65;7.47;;;;;;;;;;4955568;28;20402;-66
2023/01/12 03:55:23;;;;;;;15.75;7.40;;;;;;;;;;4955495;28;20067;-66
2023/01/12 03:57:51;;;;;;;13.73;7.53;;;;;;;;;;4954264;29;20047;-66
2023/01/12 04:00:20;;;;;;;15.48;7.18;;;;;;;;;;4955425;28;20063;-68
2023/01/12 04:02:47;;;;;;;12.57;6.20;;;;;;;;;;4955458;28;20051;-67
2023/01/12 04:05:15;;;;;;;13.68;7.30;;;;;;;;;;4955400;28;20043;-67
2023/01/12 04:07:42;;;;;;;12.30;7.22;;;;;;;;;;4955055;28;20058;-67
2023/01/12 04:10:10;;;;;;;13.27;7.28;;;;;;;;;;4955227;28;20071;-67
2023/01/12 04:12:37;;;;;;;13.82;6.95;;;;;;;;;;4955134;29;20126;-67
2023/01/12 04:15:05;;;;;;;15.68;7.78;;;;;;;;;;4954954;28;20203;-67
2023/01/12 04:17:32;;;;;;;14.77;7.65;;;;;;;;;;4955031;28;20043;-67
2023/01/12 04:20:00;;;;;;;14.65;6.82;;;;;;;;;;4955044;28;20163;-67
2023/01/12 04:22:43;;;;;;;13.48;7.28;;;;;;;;;;4954998;28;20055;-67
2023/01/12 04:25:15;;;;;;;13.60;7.32;;;;;;;;;;4954793;28;20074;-67
2023/01/12 04:27:45;;;;;;;13.13;6.88;;;;;;;;;;4954853;28;20043;-67
2023/01/12 04:30:17;;;;;;;16.05;7.60;;;;;;;;;;4955159;28;20078;-67
2023/01/12 04:32:45;;;;;;;13.07;7.13;;;;;;;;;;4954861;28;20051;-67
2023/01/12 04:35:13;;;;;;;15.30;7.25;;;;;;;;;;4954747;28;20055;-67
2023/01/12 04:37:40;;;;;;;15.07;6.75;;;;;;;;;;4954929;28;20576;-67
2023/01/12 04:40:08;;;;;;;13.05;6.95;;;;;;;;;;4954825;28;20130;-67
2023/01/12 04:45:23;;;;;;;14.65;7.38;;;;;;;;;;4954125;28;20123;-67
2023/01/12 04:47:50;;;;;;;14.68;7.43;;;;;;;;;;4952636;29;20055;-67
2023/01/12 04:50:17;;;;;;;15.00;7.10;;;;;;;;;;4954894;29;20043;-67
2023/01/12 04:52:45;;;;;;;11.30;6.90;;;;;;;;;;4954586;28;20521;-67
2023/01/12 04:55:12;;;;;;;11.85;7.20;;;;;;;;;;4953320;29;20564;-67
2023/01/12 04:57:40;;;;;;;14.15;7.35;;;;;;;;;;4954065;28;20070;-67
2023/01/12 05:00:08;;;;;;;10.93;6.57;;;;;;;;;;4954554;28;20098;-67
2023/01/12 05:02:35;;;;;;;13.80;6.88;;;;;;;;;;4954394;28;20039;-67
2023/01/12 05:05:04;;;;;;;12.88;6.97;;;;;;;;;;4954533;28;20482;-67
2023/01/12 05:07:31;;;;;;;14.18;6.88;;;;;;;;;;4954564;28;20050;-67
2023/01/12 05:12:45;;;;;;;12.43;6.80;;;;;;;;;;4954626;28;20405;-67
2023/01/12 05:15:13;;;;;;;12.80;6.78;;;;;;;;;;4954760;28;20070;-67
2023/01/12 05:17:40;;;;;;;11.05;6.90;;;;;;;;;;4954259;28;20094;-69
2023/01/12 05:20:08;;;;;;;15.73;7.43;;;;;;;;;;4954249;28;20413;-69
2023/01/12 05:22:35;;;;;;;14.10;7.13;;;;;;;;;;4954635;28;20400;-69
2023/01/12 05:25:03;;;;;;;14.68;7.30;;;;;;;;;;4954325;28;20039;-69
2023/01/12 05:27:30;;;;;;;12.85;7.30;;;;;;;;;;4953415;28;20516;-69
2023/01/12 05:29:58;;;;;;;14.40;8.00;;;;;;;;;;4953270;28;20043;-69
2023/01/12 05:32:26;;;;;;;15.77;8.82;;;;;;;;;;4954368;28;20067;-69
2023/01/12 05:34:53;;;;;;;14.25;8.18;;;;;;;;;;4955263;28;20446;-69
2023/01/12 05:37:21;;;;;;;15.73;8.07;;;;;;;;;;4954308;28;20194;-69
2023/01/12 05:39:48;;;;;;;19.52;9.73;;;;;;;;;;4954174;28;20051;-69
2023/01/12 05:45:01;;;;;;;15.90;8.30;;;;;;;;;;4951663;28;20039;-69
2023/01/12 05:47:29;;;;;;;16.83;8.15;;;;;;;;;;4953170;28;20059;-69
2023/01/12 05:49:56;;;;;;;13.65;8.20;;;;;;;;;;4953531;28;20122;-69
2023/01/12 05:52:24;;;;;;;13.38;7.28;;;;;;;;;;4952973;29;20446;-69
2023/01/12 05:54:51;;;;;;;17.48;9.43;;;;;;;;;;4954248;28;20097;-70
2023/01/12 05:57:18;;;;;;;15.68;9.80;;;;;;;;;;4955150;28;20126;-69
2023/01/12 05:59:46;;;;;;;15.23;8.30;;;;;;;;;;4957599;28;20090;-69
2023/01/12 06:02:16;;;;;;;15.25;8.18;;;;;;;;;;4957525;28;20068;-68
2023/01/12 06:04:44;;;;;;;19.25;11.15;;;;;;;;;;4963036;28;20136;-68
2023/01/12 06:07:12;;;;;;;18.88;11.57;;;;;;;;;;4957434;28;20039;-68
2023/01/12 06:09:40;;;;;;;23.45;12.70;;;;;;;;;;4972906;28;20050;-68
2023/01/12 06:14:58;;;;;;;14.63;9.07;;;;;;;;;;4937257;29;20502;-69
2023/01/12 06:17:26;;;;;;;16.23;8.98;;;;;;;;;;4937361;29;20074;-68
2023/01/12 06:19:53;;;;;;;13.90;8.32;;;;;;;;;;4938891;28;20074;-68
2023/01/12 06:22:21;;;;;;;13.73;9.02;;;;;;;;;;4958771;28;20102;-67
2023/01/12 06:24:48;;;;;;;18.58;8.63;;;;;;;;;;4957285;28;20043;-68
2023/01/12 06:27:16;;;;;;;16.08;8.13;;;;;;;;;;4957184;28;20118;-69
2023/01/12 06:29:43;;;;;;;12.98;8.15;;;;;;;;;;4957073;28;20050;-67
2023/01/12 06:32:11;;;;;;;18.20;9.02;;;;;;;;;;4957267;28;20438;-68
2023/01/12 06:34:38;;;;;;;18.05;9.20;;;;;;;;;;4956951;28;20472;-68
2023/01/12 06:37:07;;;;;;;18.05;10.45;;;;;;;;;;4966277;28;20035;-67
2023/01/12 06:39:35;;;;;;;16.48;9.00;;;;;;;;;;4975271;28;20047;-67
2023/01/12 06:44:50;;;;;;;14.02;8.20;;;;;;;;;;4974908;28;20051;-68
2023/01/12 06:47:18;;;;;;;16.85;9.60;;;;;;;;;;4973719;28;20050;-68
2023/01/12 06:49:45;;;;;;;16.38;10.10;;;;;;;;;;4975133;28;20043;-68
2023/01/12 06:52:13;;;;;;;24.63;14.20;;;;;;;;;;4969876;28;20109;-68
2023/01/12 06:54:40;;;;;;;16.98;8.90;;;;;;;;;;4975840;28;20047;-68
2023/01/12 06:57:08;;;;;;;18.27;11.07;;;;;;;;;;4975901;28;20386;-68
2023/01/12 06:59:35;;;;;;;27.23;14.38;;;;;;;;;;4975743;28;20050;-69
2023/01/12 07:02:05;;;;;;;30.77;14.05;;;;;;;;;;4972567;28;20544;-69
2023/01/12 07:04:32;;;;;;;25.55;13.32;;;;;;;;;;4975966;28;20066;-69
2023/01/12 07:07:00;;;;;;;23.73;12.07;;;;;;;;;;4974476;28;20062;-69
2023/01/12 07:09:27;;;;;;;19.77;9.90;;;;;;;;;;4974650;28;20043;-69
2023/01/12 07:11:55;;;;;;;18.92;11.32;;;;;;;;;;4974255;28;20053;-68
2023/01/12 07:14:22;;;;;;;19.75;10.98;;;;;;;;;;4975285;28;20469;-68
2023/01/12 07:16:50;;;;;;;19.02;10.55;;;;;;;;;;4975364;28;20148;-68
2023/01/12 07:19:17;;;;;;;14.02;8.90;;;;;;;;;;4975104;28;20122;-68
2023/01/12 07:21:45;;;;;;;11.95;7.45;;;;;;;;;;4975090;28;20039;-69
2023/01/12 07:24:12;;;;;;;10.98;6.93;;;;;;;;;;4975511;28;20047;-68
2023/01/12 07:26:40;;;;;;;12.23;7.60;;;;;;;;;;4975148;28;20137;-69
2023/01/12 07:29:10;;;;;;;12.15;7.00;;;;;;;;;;4975214;28;20121;-68
2023/01/12 07:31:37;;;;;;;10.30;7.07;;;;;;;;;;4975180;28;20098;-68
2023/01/12 07:34:05;;;;;;;18.30;10.70;;;;;;;;;;4973904;28;20074;-68
2023/01/12 07:36:32;;;;;;;20.50;12.00;;;;;;;;;;4975273;28;20043;-68
2023/01/12 07:39:00;;;;;;;22.50;12.95;;;;;;;;;;4975154;28;20038;-68
2023/01/12 07:44:13;;;;;;;25.48;15.82;;;;;;;;;;4974883;28;20054;-68
2023/01/12 07:46:41;;;;;;;31.15;18.73;;;;;;;;;;4974970;28;20085;-68
2023/01/12 07:49:08;;;;;;;31.73;18.65;;;;;;;;;;4973653;28;20057;-68
2023/01/12 07:51:36;;;;;;;30.92;18.85;;;;;;;;;;4974762;28;20481;-68
2023/01/12 07:54:03;;;;;;;25.50;15.35;;;;;;;;;;4974797;28;20046;-68
2023/01/12 07:56:30;;;;;;;25.33;14.70;;;;;;;;;;4974682;28;20509;-68
2023/01/12 07:58:58;;;;;;;26.50;13.88;;;;;;;;;;4973272;28;20450;-68
2023/01/12 08:01:25;;;;;;;24.35;14.48;;;;;;;;;;4974774;28;20117;-68
2023/01/12 08:03:53;;;;;;;25.73;15.85;;;;;;;;;;4974638;28;20465;-68
2023/01/12 08:06:21;;;;;;;32.50;20.25;;;;;;;;;;4973702;28;20090;-68
2023/01/12 08:08:48;;;;;;;36.15;22.55;;;;;;;;;;4974224;28;20566;-69
2023/01/12 08:11:16;;;;;;;31.15;18.38;;;;;;;;;;4974730;28;20050;-69
2023/01/12 08:13:43;;;;;;;31.02;18.50;;;;;;;;;;4974454;28;20050;-68
2023/01/12 08:16:31;;;;;;;27.85;16.70;;;;;;;;;;4974432;28;20101;-68
2023/01/12 08:19:18;;;;;;;26.42;15.52;;;;;;;;;;4974233;28;20042;-69
2023/01/12 08:21:51;;;;;;;24.50;13.88;;;;;;;;;;4973988;28;20572;-68
2023/01/12 08:24:21;;;;;;;26.67;16.05;;;;;;;;;;4974466;28;20043;-68
2023/01/12 08:26:51;;;;;;;30.33;18.00;;;;;;;;;;4956990;28;20521;-68
2023/01/12 08:29:31;;;;;;;27.65;16.92;;;;;;;;;;4959416;28;20091;-69
2023/01/12 08:32:01;;;;;;;26.20;15.18;;;;;;;;;;4960899;28;20098;-68
2023/01/12 08:34:31;;;;;;;20.98;13.68;;;;;;;;;;4961718;28;20046;-68
2023/01/12 08:37:00;;;;;;;26.30;14.15;;;;;;;;;;4963964;28;20566;-68
2023/01/12 08:39:28;;;;;;;23.13;13.98;;;;;;;;;;4960320;28;20441;-68
2023/01/12 08:41:56;;;;;;;26.08;13.95;;;;;;;;;;4964086;28;20124;-68
2023/01/12 08:44:27;;;;;;;21.60;12.68;;;;;;;;;;4962370;28;20105;-67
2023/01/12 08:46:55;;;;;;;22.38;13.65;;;;;;;;;;4962612;28;20497;-67
2023/01/12 08:49:23;;;;;;;24.15;14.10;;;;;;;;;;4963831;28;20397;-67
2023/01/12 08:51:51;;;;;;;29.02;14.20;;;;;;;;;;4960005;28;20118;-68
2023/01/12 08:54:20;;;;;;;29.73;14.98;;;;;;;;;;4963933;28;20573;-68
2023/01/12 08:56:48;;;;;;;27.65;15.45;;;;;;;;;;4963140;28;20396;-68
2023/01/12 08:59:17;;;;;;;30.75;17.50;;;;;;;;;;4954070;28;20630;-68
2023/01/12 09:01:45;;;;;;;31.02;17.40;;;;;;;;;;4954291;28;20066;-68
2023/01/12 09:04:13;;;;;;;30.63;17.70;;;;;;;;;;4954535;28;20421;-68
2023/01/12 09:06:41;;;;;;;27.33;16.58;;;;;;;;;;4954146;28;20090;-67
2023/01/12 09:09:10;;;;;;;29.80;15.40;;;;;;;;;;4965510;28;20070;-68
2023/01/12 09:11:38;;;;;;;20.33;12.02;;;;;;;;;;4959997;28;20090;-68
2023/01/12 09:14:06;;;;;;;25.63;13.23;;;;;;;;;;4969080;28;20508;-68
2023/01/12 09:16:33;;;;;;;18.98;12.13;;;;;;;;;;4969179;28;20246;-68
2023/01/12 09:19:01;;;;;;;21.58;11.60;;;;;;;;;;4973439;28;20422;-68
2023/01/12 09:21:29;;;;;;;17.40;11.15;;;;;;;;;;4972293;28;20053;-67
2023/01/12 09:23:56;;;;;;;20.98;11.88;;;;;;;;;;4964681;28;20749;-68
2023/01/12 09:26:30;;;;;;;19.95;11.98;;;;;;;;;;4961072;28;20075;-68
2023/01/12 09:29:02;;;;;;;17.70;11.32;;;;;;;;;;4953907;28;20119;-68
2023/01/12 09:31:31;;;;;;;17.23;10.32;;;;;;;;;;4954027;28;20054;-68
2023/01/12 09:33:59;;;;;;;15.65;9.65;;;;;;;;;;4960014;28;20070;-68
2023/01/12 09:36:28;;;;;;;17.08;10.23;;;;;;;;;;4957834;28;20118;-68
2023/01/12 09:38:56;;;;;;;12.43;8.45;;;;;;;;;;4957811;28;20047;-67
2023/01/12 09:47:39;;;;;;;12.45;7.85;;;;;;;;;;4976965;28;20066;-67
2023/01/12 09:50:12;;;;;;;14.17;8.90;;;;;;;;;;4976878;28;20123;-67
2023/01/12 09:52:45;;;;;;;15.43;8.80;;;;;;;;;;4976964;28;20042;-67
2023/01/12 09:55:23;;;;;;;14.35;9.05;;;;;;;;;;4976761;28;20047;-67
2023/01/12 09:58:09;;;;;;;13.40;8.07;;;;;;;;;;4970096;28;20035;-69
2023/01/12 10:00:36;;;;;;;16.17;9.13;;;;;;;;;;4965255;28;20508;-69
2023/01/12 10:03:10;;;;;;;15.18;9.40;;;;;;;;;;4976550;28;20517;-68
2023/01/12 10:05:37;;;;;;;11.75;7.30;;;;;;;;;;4976518;28;20502;-69
2023/01/12 10:08:13;;;;;;;14.48;8.75;;;;;;;;;;4969797;28;20043;-69
2023/01/12 10:10:43;;;;;;;16.27;8.40;;;;;;;;;;4965289;28;20050;-69
2023/01/12 10:13:13;;;;;;;14.45;8.32;;;;;;;;;;4965771;28;20668;-70
2023/01/12 10:15:54;;;;;;;15.00;8.07;;;;;;;;;;4962259;28;20061;-70
2023/01/12 10:18:30;;;;;;;12.60;8.32;;;;;;;;;;4958747;28;20039;-69
2023/01/12 10:20:57;;;;;;;;;;;;;;;;;;4964409;28;20074;-71
2023/01/12 10:23:27;;;;;;;19.13;11.15;;;;;;;;;;4957049;29;20021;-70
2023/01/12 10:26:04;;;;;;;20.13;11.27;;;;;;;;;;4972936;28;20050;-68
2023/01/12 10:28:34;;;;;;;17.42;10.30;;;;;;;;;;4962925;28;20075;-68
2023/01/12 10:31:01;;;;;;;16.17;9.90;;;;;;;;;;4962952;28;20038;-68
2023/01/12 10:33:31;;;;;;;17.08;10.10;;;;;;;;;;4972704;28;20043;-69
2023/01/12 10:36:18;;;;;;;15.10;9.75;;;;;;;;;;4962854;28;20489;-67
2023/01/12 10:38:55;;;;;;;29.13;14.50;;;;;;;;;;4985473;28;20138;-71
2023/01/12 10:41:36;;;;;;;171.82;65.38;;;;;;;;;;4976062;28;20077;-68
2023/01/12 10:44:06;;;;;;;171.80;64.43;;;;;;;;;;4974144;28;20054;-70
2023/01/12 10:46:34;;;;;;;42.33;18.42;;;;;;;;;;4956198;28;20066;-70
2023/01/12 10:49:19;;;;;;;26.38;12.60;;;;;;;;;;4956014;28;20576;-70
2023/01/12 10:51:52;;;;;;;22.95;12.10;;;;;;;;;;4987307;28;20438;-69
2023/01/12 10:54:40;;;;;;;20.55;12.23;;;;;;;;;;4956719;28;20035;-69
2023/01/12 10:57:13;;;;;;;16.45;11.20;;;;;;;;;;4955244;28;20051;-70
2023/01/12 10:59:41;;;;;;;15.50;9.95;;;;;;;;;;4956440;28;20078;-69
2023/01/12 11:02:10;;;;;;;17.10;10.75;;;;;;;;;;4955128;29;20039;-71
2023/01/12 11:04:42;;;;;;;16.33;10.55;;;;;;;;;;4960716;28;20066;-68
2023/01/12 11:07:28;;;;;;;15.38;10.25;;;;;;;;;;4958745;28;20110;-69
2023/01/12 11:09:57;;;;;;;15.57;10.02;;;;;;;;;;4956154;28;20047;-69
2023/01/12 11:12:33;;;;;;;17.05;10.02;;;;;;;;;;4956258;28;20051;-68
2023/01/12 11:15:09;;;;;;;14.25;10.20;;;;;;;;;;4956231;29;20071;-68
2023/01/12 11:17:46;;;;;;;16.70;10.23;;;;;;;;;;4956505;28;20058;-69
2023/01/12 11:20:22;;;;;;;16.58;9.70;;;;;;;;;;4956189;28;20047;-69
2023/01/12 11:22:53;;;;;;;12.75;8.15;;;;;;;;;;4956428;28;20066;-68
2023/01/12 11:25:22;;;;;;;13.75;8.77;;;;;;;;;;4955939;28;20094;-69
2023/01/12 11:28:05;;;;;;;15.68;9.85;;;;;;;;;;4954763;28;20098;-68
2023/01/12 11:30:39;;;;;;;15.07;9.98;;;;;;;;;;4955681;28;20044;-69
2023/01/12 11:33:12;;;;;;;14.82;9.63;;;;;;;;;;4955825;28;20090;-68
2023/01/12 11:35:41;;;;;;;18.40;11.68;;;;;;;;;;4955763;29;20051;-68
2023/01/12 11:38:13;;;;;;;18.63;12.40;;;;;;;;;;4954416;29;20037;-68
2023/01/12 11:40:41;;;;;;;20.58;12.73;;;;;;;;;;4955724;28;20051;-68
2023/01/12 11:46:12;;;;;;;19.10;11.85;;;;;;;;;;4955462;28;20055;-68
2023/01/12 11:48:47;;;;;;;18.52;11.98;;;;;;;;;;4955485;28;20101;-68
2023/01/12 11:51:15;;;;;;;19.95;12.60;;;;;;;;;;4955362;28;20513;-68
2023/01/12 11:53:42;;;;;;;18.15;12.60;;;;;;;;;;4955519;28;20121;-69
2023/01/12 11:56:28;;;;;;;18.95;11.90;;;;;;;;;;4955170;28;20050;-68
2023/01/12 11:59:10;;;;;;;17.08;11.10;;;;;;;;;;4955319;28;20067;-68
2023/01/12 12:02:04;;;;;;;17.48;11.30;;;;;;;;;;4953229;28;20394;-68
2023/01/12 12:04:51;;;;;;;16.85;11.05;;;;;;;;;;4949254;29;20121;-68
2023/01/12 12:07:27;;;;;;;17.45;11.23;;;;;;;;;;4939874;28;20041;-68
2023/01/12 12:10:04;;;;;;;14.10;9.73;;;;;;;;;;4947718;28;20043;-69
2023/01/12 12:12:34;;;;;;;17.90;11.70;;;;;;;;;;4954776;28;20051;-69
2023/01/12 12:15:02;;;;;;;21.40;13.27;;;;;;;;;;4954920;28;20473;-69
2023/01/12 12:17:41;;;;;;;20.42;13.75;;;;;;;;;;4955130;28;20366;-69
2023/01/12 12:20:16;;;;;;;20.48;13.70;;;;;;;;;;4948549;29;20039;-69
2023/01/12 12:22:55;;;;;;;18.55;12.15;;;;;;;;;;4948716;28;20058;-69
2023/01/12 12:25:23;;;;;;;19.70;13.02;;;;;;;;;;4943173;29;20051;-69
2023/01/12 12:27:58;;;;;;;13.35;8.50;;;;;;;;;;4954624;28;20078;-69
2023/01/12 12:30:25;;;;;;;13.30;9.23;;;;;;;;;;4954802;28;20082;-69
2023/01/12 12:32:57;;;;;;;14.20;10.02;;;;;;;;;;4954364;28;20123;-69
2023/01/12 12:35:43;;;;;;;15.75;10.95;;;;;;;;;;4955945;28;20450;-69
2023/01/12 12:38:25;;;;;;;15.23;10.23;;;;;;;;;;4940313;28;20035;-69
2023/01/12 12:47:22;;;;;;;19.73;12.23;;;;;;;;;;4937027;28;20062;-69
2023/01/12 12:49:51;;;;;;;15.13;9.68;;;;;;;;;;4934855;29;20052;-69
2023/01/12 12:52:19;;;;;;;14.98;9.27;;;;;;;;;;4934764;29;20044;-69
2023/01/12 12:54:46;;;;;;;14.13;9.25;;;;;;;;;;4942287;29;20051;-69
2023/01/12 12:57:14;;;;;;;12.68;8.48;;;;;;;;;;4937386;28;20078;-71
2023/01/12 12:59:41;;;;;;;11.32;7.60;;;;;;;;;;4974263;28;20046;-67
2023/01/12 13:02:29;;;;;;;12.25;7.95;;;;;;;;;;4947493;29;20075;-67
2023/01/12 13:04:57;;;;;;;13.55;8.55;;;;;;;;;;4934743;29;20063;-67
2023/01/12 13:07:25;;;;;;;15.30;9.25;;;;;;;;;;4934290;29;20043;-67
2023/01/12 13:10:02;;;;;;;13.52;9.43;;;;;;;;;;4942643;29;20552;-67
2023/01/12 13:12:30;;;;;;;12.65;8.05;;;;;;;;;;4952318;28;20498;-67
2023/01/12 13:15:10;;;;;;;16.67;10.93;;;;;;;;;;4945717;28;20513;-67
2023/01/12 13:17:41;;;;;;;22.55;13.43;;;;;;;;;;4935618;28;20111;-67
2023/01/12 13:20:09;;;;;;;21.30;13.63;;;;;;;;;;4934600;29;20056;-66
2023/01/12 13:22:51;;;;;;;25.17;15.23;;;;;;;;;;4939956;28;20569;-67
2023/01/12 13:25:19;;;;;;;27.42;17.10;;;;;;;;;;4966658;28;20039;-67
2023/01/12 13:27:54;;;;;;;25.95;16.55;;;;;;;;;;4972425;28;20043;-68
2023/01/12 13:30:28;;;;;;;27.33;16.75;;;;;;;;;;4961908;28;20047;-67
2023/01/12 13:32:57;;;;;;;23.98;15.20;;;;;;;;;;4954921;28;20047;-67
2023/01/12 13:35:27;;;;;;;26.13;15.73;;;;;;;;;;4954212;28;20070;-68
2023/01/12 13:38:01;;;;;;;27.25;16.17;;;;;;;;;;4952963;29;20506;-67
2023/01/12 13:40:31;;;;;;;25.73;15.98;;;;;;;;;;4954134;28;20039;-68
2023/01/12 13:43:18;;;;;;;27.95;16.50;;;;;;;;;;4954502;28;20098;-67
2023/01/12 13:45:49;;;;;;;35.65;19.65;;;;;;;;;;4959958;28;20039;-67
2023/01/12 13:48:18;;;;;;;33.03;18.52;;;;;;;;;;4960725;28;20501;-68
2023/01/12 13:50:51;;;;;;;36.30;18.65;;;;;;;;;;4953868;28;20146;-68
2023/01/12 13:53:23;;;;;;;30.33;17.00;;;;;;;;;;4956275;28;20063;-68
2023/01/12 13:56:03;;;;;;;30.05;17.15;;;;;;;;;;4940394;28;20046;-67
2023/01/12 13:58:41;;;;;;;29.83;16.95;;;;;;;;;;4963931;28;20137;-68
2023/01/12 14:01:25;;;;;;;27.08;15.55;;;;;;;;;;4961650;28;20638;-67
2023/01/12 14:04:00;;;;;;;29.02;14.43;;;;;;;;;;4957607;28;20081;-67
2023/01/12 14:06:37;;;;;;;24.50;14.68;;;;;;;;;;4959767;28;20043;-67
2023/01/12 14:09:13;;;;;;;26.48;15.43;;;;;;;;;;4953923;28;20126;-68
2023/01/12 14:11:47;;;;;;;28.88;16.52;;;;;;;;;;4952823;29;20452;-67
2023/01/12 14:20:16;;;;;;;24.27;14.63;;;;;;;;;;4935762;29;20064;-66
2023/01/12 14:22:44;;;;;;;23.42;14.23;;;;;;;;;;4936863;29;20442;-66
2023/01/12 14:25:20;;;;;;;23.88;13.80;;;;;;;;;;4937158;29;20513;-67
2023/01/12 14:27:55;;;;;;;26.42;13.95;;;;;;;;;;4936789;29;20044;-67
2023/01/12 14:30:24;;;;;;;27.60;15.60;;;;;;;;;;4937653;29;20043;-67
2023/01/12 14:32:52;;;;;;;23.70;14.07;;;;;;;;;;4972011;28;20511;-66
2023/01/12 14:35:21;;;;;;;28.55;15.68;;;;;;;;;;4976297;28;20117;-67
2023/01/12 14:37:50;;;;;;;24.42;14.10;;;;;;;;;;4976330;28;20493;-66
2023/01/12 14:40:29;;;;;;;25.35;14.55;;;;;;;;;;4974398;28;20366;-67
2023/01/12 14:48:42;;;;;;;24.63;13.57;;;;;;;;;;4959823;28;20122;-67
2023/01/12 14:51:10;;;;;;;24.33;13.27;;;;;;;;;;4955061;29;20050;-68
2023/01/12 14:53:39;;;;;;;24.10;13.48;;;;;;;;;;4956572;28;20067;-67
2023/01/12 14:56:13;;;;;;;25.65;13.85;;;;;;;;;;4956771;28;20055;-67
2023/01/12 14:58:41;;;;;;;25.37;13.97;;;;;;;;;;4956235;28;20118;-67
2023/01/12 15:01:09;;;;;;;23.13;14.05;;;;;;;;;;4956465;28;20047;-68
2023/01/12 15:03:37;;;;;;;24.77;14.73;;;;;;;;;;4955189;29;20043;-67
2023/01/12 15:06:14;;;;;;;26.35;15.98;;;;;;;;;;4954726;29;20043;-68
2023/01/12 15:08:51;;;;;;;24.48;15.13;;;;;;;;;;4955123;29;20066;-67
2023/01/12 15:11:28;;;;;;;26.35;15.88;;;;;;;;;;4954846;29;20070;-68
2023/01/12 15:13:56;;;;;;;23.10;14.75;;;;;;;;;;4956228;28;20043;-68
2023/01/12 15:27:30;;;;;;;23.70;14.27;;;;;;;;;;4954889;29;20077;-69
2023/01/12 15:29:58;;;;;;;21.05;11.63;;;;;;;;;;4951454;28;20588;-69
2023/01/12 15:32:26;;;;;;;20.13;11.38;;;;;;;;;;4951813;28;20051;-69
2023/01/12 15:35:15;;;;;;;19.73;10.85;;;;;;;;;;4947857;29;20206;-68
2023/01/12 15:37:42;;;;;;;19.95;11.75;;;;;;;;;;4953006;29;20047;-68
2023/01/12 15:40:12;;;;;;;17.27;10.27;;;;;;;;;;4950592;29;20048;-69
2023/01/12 15:42:39;;;;;;;20.77;11.93;;;;;;;;;;4938240;29;20063;-69
2023/01/12 15:45:27;;;;;;;20.70;13.07;;;;;;;;;;4947851;29;20064;-70
2023/01/12 15:47:55;;;;;;;21.70;12.82;;;;;;;;;;4954642;28;20102;-69
2023/01/12 15:50:23;;;;;;;22.92;13.40;;;;;;;;;;4953974;29;20046;-69
2023/01/12 15:52:50;;;;;;;24.85;14.88;;;;;;;;;;4954773;28;20114;-69